createdAt,value
2022-08-22T00:02:28.153Z,1.45
2022-08-22T00:12:40.300Z,1.33
2022-08-22T00:22:59.681Z,1.10
2022-08-22T00:33:17.407Z,1.52
2022-08-22T00:43:31.777Z,1.13
2022-08-22T00:53:53.529Z,1.20
2022-08-22T01:04:13.393Z,1.13
2022-08-22T01:14:34.655Z,1.35
2022-08-22T01:25:02.344Z,1.10
2022-08-22T01:35:34.773Z,1.52
2022-08-22T01:46:06.722Z,1.17
2022-08-22T01:56:15.899Z,0.95
2022-08-22T02:06:24.909Z,1.20
2022-08-22T02:16:37.849Z,1.05
2022-08-22T02:26:45.732Z,1.15
2022-08-22T02:36:58.133Z,1.20
2022-08-22T02:47:11.762Z,1.30
2022-08-22T02:57:53.598Z,1.50
2022-08-22T03:08:17.045Z,1.52
2022-08-22T03:18:31.286Z,1.30
2022-08-22T03:28:59.207Z,1.53
2022-08-22T03:39:15.314Z,1.30
2022-08-22T03:49:33.952Z,1.30
2022-08-22T04:00:11.332Z,1.33
2022-08-22T04:10:35.281Z,1.50
2022-08-22T04:20:45.454Z,1.20
2022-08-22T04:30:55.818Z,1.38
2022-08-22T04:41:09.175Z,1.50
2022-08-22T04:51:23.624Z,1.55
2022-08-22T05:01:48.746Z,1.30
2022-08-22T05:11:52.948Z,1.30
2022-08-22T05:21:55.222Z,1.70
2022-08-22T05:32:04.147Z,1.30
2022-08-22T05:42:12.859Z,1.52
2022-08-22T05:52:38.416Z,1.52
2022-08-22T06:03:11.082Z,1.98
2022-08-22T06:13:24.450Z,2.97
2022-08-22T06:23:31.552Z,2.00
2022-08-22T06:33:38.412Z,2.10
2022-08-22T06:43:43.320Z,1.92
2022-08-22T07:13:58.441Z,1.90
2022-08-22T07:24:01.293Z,1.90
2022-08-22T07:34:38.134Z,1.92
2022-08-22T07:44:47.598Z,1.58
2022-08-22T07:54:57.979Z,1.55
2022-08-22T08:05:00.368Z,1.60
2022-08-22T08:15:05.321Z,1.42
2022-08-22T08:35:18.132Z,1.50
2022-08-22T08:45:36.603Z,1.40
2022-08-22T08:55:47.517Z,1.80
2022-08-22T09:05:58.553Z,1.45
2022-08-22T09:16:37.938Z,1.65
2022-08-22T09:26:54.297Z,1.45
2022-08-22T09:37:37.027Z,1.55
2022-08-22T09:47:50.337Z,1.42
2022-08-22T09:58:02.932Z,1.30
2022-08-22T10:08:11.405Z,1.40
2022-08-22T10:18:52.890Z,1.35
2022-08-22T10:29:02.805Z,1.75
2022-08-22T10:39:09.430Z,1.50
2022-08-22T10:49:28.760Z,1.40
2022-08-22T10:59:46.290Z,1.65
2022-08-22T11:09:57.421Z,1.65
2022-08-22T11:20:27.164Z,1.52
2022-08-22T11:31:11.638Z,1.55
2022-08-22T11:41:24.572Z,1.50
2022-08-22T11:51:47.476Z,1.60
2022-08-22T12:01:55.963Z,1.60
2022-08-22T12:12:20.083Z,1.75
2022-08-22T12:22:44.487Z,1.80
2022-08-22T12:33:10.555Z,1.38
2022-08-22T12:43:51.933Z,1.30
2022-08-22T12:54:13.822Z,1.45
2022-08-22T13:04:31.040Z,1.60
2022-08-22T13:14:36.307Z,1.45
2022-08-22T13:24:51.970Z,1.60
2022-08-22T13:34:56.397Z,1.55
2022-08-22T13:45:02.203Z,1.60
2022-08-22T13:55:14.023Z,1.30
2022-08-22T14:05:25.974Z,1.50
2022-08-22T14:15:33.994Z,1.50
2022-08-22T14:25:47.497Z,1.23
2022-08-22T14:35:53.386Z,1.45
2022-08-22T14:45:57.437Z,1.65
2022-08-22T14:56:03.949Z,1.50
2022-08-22T15:06:37.251Z,1.35
2022-08-22T15:17:09.122Z,1.70
2022-08-22T15:27:11.060Z,1.33
2022-08-22T15:37:18.771Z,1.55
2022-08-22T15:47:39.681Z,1.40
2022-08-22T15:57:49.167Z,1.80
2022-08-22T16:07:58.220Z,1.67
2022-08-22T16:17:59.770Z,1.65
2022-08-22T16:28:01.351Z,1.75
2022-08-22T16:38:02.987Z,1.83
2022-08-22T16:48:16.504Z,2.00
2022-08-22T16:58:56.982Z,1.90
2022-08-22T17:09:27.050Z,2.30
2022-08-22T17:19:40.077Z,1.98
2022-08-22T17:30:00.349Z,2.30
2022-08-22T17:40:17.109Z,1.90
2022-08-22T17:50:43.189Z,2.13
2022-08-22T18:00:54.553Z,2.70
2022-08-22T18:11:12.533Z,2.20
2022-08-22T18:21:28.063Z,1.80
2022-08-22T18:31:51.693Z,2.00
2022-08-22T18:42:00.456Z,2.10
2022-08-22T18:52:05.929Z,2.05
2022-08-22T19:02:37.595Z,1.95
2022-08-22T19:13:03.680Z,1.92
2022-08-22T19:23:37.090Z,2.05
2022-08-22T19:33:40.930Z,1.95
2022-08-22T19:43:43.548Z,1.90
2022-08-22T19:54:16.993Z,1.83
2022-08-22T20:04:40.168Z,1.92
2022-08-22T20:14:43.588Z,1.90
2022-08-22T20:25:16.947Z,2.10
2022-08-22T20:35:38.112Z,2.10
2022-08-22T20:45:51.140Z,1.92
2022-08-22T20:55:57.451Z,2.00
2022-08-22T21:16:18.600Z,1.85
2022-08-22T21:26:24.137Z,1.85
2022-08-22T21:36:28.879Z,1.90
2022-08-22T21:56:31.868Z,1.70
2022-08-22T22:06:33.393Z,1.80
2022-08-22T22:16:34.942Z,1.85
2022-08-22T22:26:36.492Z,1.92
2022-08-22T22:36:38.171Z,2.00
2022-08-22T22:46:39.668Z,1.67
2022-08-22T22:56:41.191Z,1.70
2022-08-22T23:06:43.281Z,2.10
2022-08-22T23:16:45.025Z,1.83
2022-08-22T23:26:46.677Z,1.70
2022-08-22T23:36:49.054Z,1.80
2022-08-22T23:46:51.508Z,1.60
2022-08-22T23:56:56.005Z,1.50
